Time;durP1;ratioP1;P1;durP2;ratioP2;P2;SDS_P1;SDS_P2;PMS_P1;PMS_P2;Temp;Humidity;BMP_temperature;BMP_pressure;BME280_temperature;BME280_humidity;BME280_pressure;Samples;Min_cycle;Max_cycle;Signal;HPM_P1;HPM_P2
2022/12/30 00:02:00;;;;;;;;;;;;;;;26.46;49.99;97690.71;589093;241;68582;-73
2022/12/30 00:04:29;;;;;;;;;;;;;;;26.46;50.23;97698.00;589040;241;68625;-72
2022/12/30 00:07:00;;;;;;;;;;;;;;;26.44;48.86;97701.00;589039;241;64918;-73
2022/12/30 00:09:28;;;;;;;;;;;;;;;26.44;49.15;97700.21;589009;241;66578;-72
2022/12/30 00:33:05;;;;;;;;;;;;;;;26.43;49.73;97693.20;589064;241;69523;-73
2022/12/30 00:33:31;;;;;;;;;;;;;;;26.35;49.21;97714.33;589137;241;68742;-72
2022/12/30 00:35:59;;;;;;;;;;;;;;;26.35;49.53;97700.86;589032;241;68944;-72
2022/12/30 00:38:27;;;;;;;;;;;;;;;26.34;49.55;97711.91;589036;241;65128;-72
2022/12/30 00:43:40;;;;;;;;;;;;;;;26.31;49.40;97710.59;589054;241;68798;-71
2022/12/30 00:46:07;;;;;;;;;;;;;;;26.31;49.20;97718.67;589038;239;64915;-72
2022/12/30 00:56:51;;;;;;;;;;;;;;;26.27;48.68;97712.28;594041;239;68590;-71
2022/12/30 00:59:19;;;;;;;;;;;;;;;26.27;49.58;97709.58;594055;239;68660;-71
2022/12/30 01:01:48;;;;;;;;;;;;;;;26.25;48.96;97709.06;594098;237;43506;-71
2022/12/30 01:04:16;;;;;;;;;;;;;;;26.24;49.07;97714.73;594079;239;66936;-71
2022/12/30 01:06:43;;;;;;;;;;;;;;;26.23;49.54;97713.13;594101;239;68396;-71
2022/12/30 01:09:10;;;;;;;;;;;;;;;26.23;49.77;97713.13;594065;239;64871;-71
2022/12/30 01:11:39;;;;;;;;;;;;;;;26.22;49.35;97700.73;594035;239;68706;-71
2022/12/30 01:14:07;;;;;;;;;;;;;;;26.21;49.89;97699.94;594051;239;66391;-71
2022/12/30 01:16:34;;;;;;;;;;;;;;;26.20;50.35;97711.81;594068;239;63638;-71
2022/12/30 01:19:02;;;;;;;;;;;;;;;26.20;50.17;97713.72;594133;239;68621;-71
2022/12/30 01:21:29;;;;;;;;;;;;;;;26.19;49.30;97694.06;594032;239;66502;-71
2022/12/30 01:23:57;;;;;;;;;;;;;;;26.19;49.50;97695.92;594039;239;62746;-71
2022/12/30 01:26:24;;;;;;;;;;;;;;;26.18;49.66;97691.64;594046;239;66466;-71
2022/12/30 01:28:52;;;;;;;;;;;;;;;26.16;49.11;97694.61;594057;239;66485;-71
2022/12/30 01:31:19;;;;;;;;;;;;;;;26.16;49.46;97693.81;594108;239;62796;-71
2022/12/30 01:33:46;;;;;;;;;;;;;;;26.15;50.83;97686.83;594067;239;68535;-71
2022/12/30 01:36:14;;;;;;;;;;;;;;;26.14;50.10;97696.81;594033;239;68634;-71
2022/12/30 01:38:41;;;;;;;;;;;;;;;26.14;50.61;97694.12;594049;239;64938;-71
2022/12/30 01:41:09;;;;;;;;;;;;;;;26.12;49.87;97680.92;594055;239;66478;-71
2022/12/30 01:43:44;;;;;;;;;;;;;;;26.12;49.69;97682.82;594106;239;66211;-71
2022/12/30 01:46:13;;;;;;;;;;;;;;;26.12;49.74;97685.52;591870;239;62761;-71
2022/12/30 01:48:40;;;;;;;;;;;;;;;26.10;49.49;97680.41;592381;239;68655;-71
2022/12/30 01:51:12;;;;;;;;;;;;;;;26.09;50.95;97676.12;588966;241;68868;-71
2022/12/30 01:53:44;;;;;;;;;;;;;;;26.09;50.12;97675.32;589053;241;62786;-71
2022/12/30 01:56:13;;;;;;;;;;;;;;;26.08;49.65;97671.00;589053;241;68828;-71
2022/12/30 01:58:45;;;;;;;;;;;;;;;26.07;50.13;97669.41;589010;237;68665;-71
2022/12/30 02:01:13;;;;;;;;;;;;;;;26.06;49.59;97665.12;588562;240;65065;-71
2022/12/30 02:03:44;;;;;;;;;;;;;;;26.04;49.46;97665.41;589062;241;68654;-71
2022/12/30 02:06:12;;;;;;;;;;;;;;;26.03;49.33;97669.20;589043;241;68567;-71
2022/12/30 02:08:40;;;;;;;;;;;;;;;26.03;50.09;97660.31;589102;241;62780;-71
2022/12/30 02:11:08;;;;;;;;;;;;;;;26.03;49.68;97663.02;589107;241;68081;-71
2022/12/30 02:13:35;;;;;;;;;;;;;;;26.01;49.25;97659.80;589058;241;66476;-71
2022/12/30 02:16:13;;;;;;;;;;;;;;;26.00;50.27;97666.26;589007;239;63179;-71
2022/12/30 02:18:59;;;;;;;;;;;;;;;26.00;50.92;97666.26;589069;241;68902;-71
2022/12/30 02:21:37;;;;;;;;;;;;;;;25.98;51.60;97660.37;589030;241;68492;-71
2022/12/30 02:24:16;;;;;;;;;;;;;;;25.98;50.46;97660.37;589087;241;62733;-71
2022/12/30 02:26:48;;;;;;;;;;;;;;;25.97;50.20;97669.53;589063;241;66428;-71
2022/12/30 02:29:26;;;;;;;;;;;;;;;25.95;50.47;97655.57;589039;239;68511;-71
2022/12/30 02:31:55;;;;;;;;;;;;;;;25.94;50.57;97651.25;589097;241;62675;-71
2022/12/30 02:34:27;;;;;;;;;;;;;;;25.92;50.54;97651.56;589098;241;66365;-71
2022/12/30 02:36:56;;;;;;;;;;;;;;;25.91;50.47;97652.63;589053;241;68393;-71
2022/12/30 02:39:28;;;;;;;;;;;;;;;25.91;49.06;97660.71;589078;241;64903;-71
2022/12/30 02:44:51;;;;;;;;;;;;;;;25.88;50.32;97648.62;589141;241;68437;-71
2022/12/30 02:47:22;;;;;;;;;;;;;;;25.87;49.90;97652.41;588937;240;65083;-71
2022/12/30 02:52:14;;;;;;;;;;;;;;;25.87;50.05;97657.80;589038;241;68394;-71
2022/12/30 02:52:20;;;;;;;;;;;;;;;25.86;50.92;97645.44;588610;241;68312;-71
2022/12/30 02:54:48;;;;;;;;;;;;;;;25.85;51.50;97643.02;589028;241;64957;-71
2022/12/30 02:57:23;;;;;;;;;;;;;;;25.83;49.23;97648.67;589034;241;68345;-71
2022/12/30 03:05:42;;;;;;;;;;;;;;;25.81;50.92;97645.46;589072;241;68694;-71
2022/12/30 03:08:13;;;;;;;;;;;;;;;25.80;50.78;97651.92;588825;240;68817;-71
2022/12/30 03:13:29;;;;;;;;;;;;;;;25.78;51.16;97655.98;589051;241;66396;-71
2022/12/30 03:15:58;;;;;;;;;;;;;;;25.76;49.97;97648.20;588956;240;66442;-72
2022/12/30 03:18:27;;;;;;;;;;;;;;;25.76;50.18;97650.90;588897;240;65131;-72
2022/12/30 03:20:55;;;;;;;;;;;;;;;25.74;51.12;97663.84;589095;241;66417;-72
2022/12/30 03:28:57;;;;;;;;;;;;;;;25.73;51.67;97653.34;589017;241;68476;-71
2022/12/30 03:31:24;;;;;;;;;;;;;;;25.72;51.68;97649.06;589078;241;68602;-71
2022/12/30 03:33:53;;;;;;;;;;;;;;;25.71;50.96;97655.54;589053;241;64968;-71
2022/12/30 03:36:22;;;;;;;;;;;;;;;25.69;51.41;97667.38;589093;241;68824;-71
2022/12/30 03:39:00;;;;;;;;;;;;;;;25.68;50.27;97668.48;588960;240;68538;-71
2022/12/30 03:41:29;;;;;;;;;;;;;;;25.68;51.84;97662.30;588997;239;62776;-71
2022/12/30 03:43:56;;;;;;;;;;;;;;;25.66;51.64;97662.57;589071;241;66346;-71
2022/12/30 03:46:29;;;;;;;;;;;;;;;25.66;51.47;97664.47;589055;241;66499;-72
2022/12/30 03:48:56;;;;;;;;;;;;;;;25.65;52.61;97670.95;591540;238;64965;-71
2022/12/30 03:51:24;;;;;;;;;;;;;;;25.64;51.61;97669.33;594147;239;68681;-72
2022/12/30 03:53:52;;;;;;;;;;;;;;;25.63;52.72;97665.84;594056;239;66446;-72
2022/12/30 03:56:19;;;;;;;;;;;;;;;25.62;51.07;97666.14;594071;239;62784;-72
2022/12/30 03:58:47;;;;;;;;;;;;;;;25.60;51.75;97662.92;594053;239;66457;-72
2022/12/30 04:01:14;;;;;;;;;;;;;;;25.59;52.31;97662.13;594086;239;66434;-72
2022/12/30 04:03:42;;;;;;;;;;;;;;;25.59;51.20;97666.69;594126;239;62695;-72
2022/12/30 04:06:09;;;;;;;;;;;;;;;25.59;50.50;97663.99;594063;239;66667;-72
2022/12/30 04:08:37;;;;;;;;;;;;;;;25.58;52.06;97671.27;594031;239;66584;-72
2022/12/30 04:11:05;;;;;;;;;;;;;;;25.57;51.24;97666.98;594055;239;64935;-72
2022/12/30 04:13:32;;;;;;;;;;;;;;;25.56;50.06;97667.26;594077;239;66536;-72
2022/12/30 04:16:01;;;;;;;;;;;;;;;25.55;51.56;97662.97;594143;239;66220;-72
2022/12/30 04:18:28;;;;;;;;;;;;;;;25.55;50.78;97665.66;594059;239;62778;-72
2022/12/30 04:20:55;;;;;;;;;;;;;;;25.54;51.92;97674.84;594050;239;66508;-72
2022/12/30 04:23:23;;;;;;;;;;;;;;;25.52;51.05;97664.34;594029;239;69767;-72
2022/12/30 04:25:50;;;;;;;;;;;;;;;25.50;50.83;97671.89;594077;239;64896;-72
2022/12/30 04:28:18;;;;;;;;;;;;;;;25.52;50.66;97674.31;594097;239;68572;-72
2022/12/30 04:30:47;;;;;;;;;;;;;;;25.50;51.60;97671.89;594059;239;68525;-72
2022/12/30 04:33:14;;;;;;;;;;;;;;;25.49;51.15;97669.50;594077;239;65066;-72
2022/12/30 04:35:42;;;;;;;;;;;;;;;25.48;51.56;97676.75;594020;239;68546;-71
2022/12/30 04:38:09;;;;;;;;;;;;;;;25.46;51.72;97685.13;594062;239;66458;-72
2022/12/30 04:40:37;;;;;;;;;;;;;;;25.46;51.97;97670.87;594137;239;62744;-72
2022/12/30 04:43:04;;;;;;;;;;;;;;;25.45;51.80;97674.63;594031;239;66184;-72
2022/12/30 04:45:31;;;;;;;;;;;;;;;25.44;51.86;97689.98;594083;239;66431;-72
2022/12/30 04:47:59;;;;;;;;;;;;;;;25.43;51.40;97677.62;593909;238;62697;-71
2022/12/30 04:50:26;;;;;;;;;;;;;;;25.42;51.00;97686.76;592076;238;65416;-72
2022/12/30 04:52:54;;;;;;;;;;;;;;;25.41;51.60;97685.16;592610;238;66484;-71
2022/12/30 04:55:21;;;;;;;;;;;;;;;25.40;52.41;97691.64;592742;238;62707;-71
2022/12/30 04:57:49;;;;;;;;;;;;;;;25.39;52.04;97687.33;592422;238;68712;-72
2022/12/30 05:00:16;;;;;;;;;;;;;;;25.39;53.00;97686.53;592141;238;66396;-71
2022/12/30 05:02:44;;;;;;;;;;;;;;;25.37;52.16;97686.83;592740;238;62799;-71
2022/12/30 05:05:11;;;;;;;;;;;;;;;25.38;52.74;97693.02;592269;238;66516;-72
2022/12/30 05:07:39;;;;;;;;;;;;;;;25.37;53.85;97683.31;592641;238;66445;-71
2022/12/30 05:10:07;;;;;;;;;;;;;;;25.37;51.79;97694.08;592123;238;62769;-71
2022/12/30 05:12:34;;;;;;;;;;;;;;;25.35;52.33;97690.89;592391;238;68845;-71
2022/12/30 05:15:03;;;;;;;;;;;;;;;25.33;52.99;97693.84;592386;238;69462;-71
2022/12/30 05:17:31;;;;;;;;;;;;;;;25.32;50.77;97697.64;592327;238;65052;-71
2022/12/30 05:19:58;;;;;;;;;;;;;;;25.31;52.78;97693.32;592603;238;68701;-72
2022/12/30 05:22:26;;;;;;;;;;;;;;;25.31;51.73;97690.63;592172;238;68579;-72
2022/12/30 05:27:39;;;;;;;;;;;;;;;25.29;52.50;97698.20;592411;238;68718;-71
2022/12/30 05:30:06;;;;;;;;;;;;;;;25.29;52.30;97698.20;592290;238;68501;-71
2022/12/30 05:32:34;;;;;;;;;;;;;;;25.27;51.81;97688.81;592229;238;65089;-71
2022/12/30 05:35:01;;;;;;;;;;;;;;;25.27;51.22;97689.61;592243;238;68671;-71
2022/12/30 05:37:29;;;;;;;;;;;;;;;25.26;51.30;97696.05;592151;238;66727;-71
2022/12/30 05:39:56;;;;;;;;;;;;;;;25.27;51.55;97699.57;592993;238;62763;-71
2022/12/30 05:42:24;;;;;;;;;;;;;;;25.25;54.02;97695.26;592437;238;68643;-71
2022/12/30 05:44:51;;;;;;;;;;;;;;;25.25;51.82;97702.53;592571;238;68605;-71
2022/12/30 05:47:19;;;;;;;;;;;;;;;25.26;52.17;97696.05;592499;238;64955;-71
2022/12/30 05:49:47;;;;;;;;;;;;;;;25.27;52.28;97699.57;592212;235;68690;-71
2022/12/30 05:52:15;;;;;;;;;;;;;;;25.26;51.62;97698.74;592619;238;66506;-71
2022/12/30 05:54:43;;;;;;;;;;;;;;;25.27;51.61;97699.57;592083;238;64923;-71
2022/12/30 05:57:11;;;;;;;;;;;;;;;25.28;52.01;97703.86;592697;238;68503;-71
2022/12/30 05:59:38;;;;;;;;;;;;;;;25.28;52.18;97707.34;592104;238;68583;-71
2022/12/30 06:02:06;;;;;;;;;;;;;;;25.28;51.91;97712.72;592053;238;65002;-71
2022/12/30 06:04:33;;;;;;;;;;;;;;;25.29;52.97;97719.73;592269;238;66692;-71
2022/12/30 06:07:01;;;;;;;;;;;;;;;25.29;49.79;97724.28;592295;238;66494;-71
2022/12/30 06:09:28;;;;;;;;;;;;;;;25.30;50.89;97726.70;592533;238;64881;-71
2022/12/30 06:11:56;;;;;;;;;;;;;;;25.32;53.55;97729.09;593019;238;68810;-71
2022/12/30 06:14:23;;;;;;;;;;;;;;;25.31;52.56;97730.98;592404;238;66459;-71
2022/12/30 06:16:53;;;;;;;;;;;;;;;25.32;52.82;97729.92;592132;238;64871;-71
2022/12/30 06:19:20;;;;;;;;;;;;;;;25.31;50.85;97730.98;592533;238;68740;-71
2022/12/30 06:21:47;;;;;;;;;;;;;;;25.33;52.21;97742.28;592455;238;68554;-71
2022/12/30 06:24:15;;;;;;;;;;;;;;;25.33;50.08;97739.59;592246;238;64898;-71
2022/12/30 06:26:42;;;;;;;;;;;;;;;25.34;51.55;97749.25;592475;238;68590;-71
2022/12/30 06:29:10;;;;;;;;;;;;;;;25.35;51.88;97750.88;591825;238;68562;-71
2022/12/30 06:31:37;;;;;;;;;;;;;;;25.35;50.97;97744.70;592364;238;65182;-71
2022/12/30 06:34:06;;;;;;;;;;;;;;;25.36;51.54;97752.47;592474;238;68740;-71
2022/12/30 06:36:33;;;;;;;;;;;;;;;25.37;50.92;97755.96;592387;238;68557;-71
2022/12/30 06:39:01;;;;;;;;;;;;;;;25.37;51.60;97751.41;592044;238;64838;-71
2022/12/30 06:41:28;;;;;;;;;;;;;;;25.37;51.51;97754.09;592073;238;68685;-71
2022/12/30 06:43:56;;;;;;;;;;;;;;;25.39;51.25;97757.28;592429;238;65994;-71
2022/12/30 06:46:23;;;;;;;;;;;;;;;25.38;52.07;97750.31;591941;238;62874;-71
2022/12/30 06:48:51;;;;;;;;;;;;;;;25.39;50.31;97754.59;592433;237;67084;-71
2022/12/30 06:51:18;;;;;;;;;;;;;;;25.39;50.88;97749.22;592196;238;68497;-71
2022/12/30 06:53:46;;;;;;;;;;;;;;;25.40;50.62;97745.45;592133;238;65029;-71
2022/12/30 06:56:13;;;;;;;;;;;;;;;25.40;50.26;97748.15;592139;238;68352;-71
2022/12/30 06:58:40;;;;;;;;;;;;;;;25.41;51.09;97748.95;591896;238;68315;-73
2022/12/30 07:01:08;;;;;;;;;;;;;;;25.41;50.77;97755.13;592280;238;64797;-69
2022/12/30 07:03:37;;;;;;;;;;;;;;;25.42;51.63;97745.95;591927;238;66235;-77
2022/12/30 07:06:04;;;;;;;;;;;;;;;25.42;50.23;97751.34;591778;238;66425;-70
2022/12/30 07:08:34;;;;;;;;;;;;;;;25.42;48.90;97750.55;592348;236;65026;-70
2022/12/30 07:11:01;;;;;;;;;;;;;;;25.42;49.97;97751.34;592123;238;69225;-73
2022/12/30 07:13:29;;;;;;;;;;;;;;;25.44;46.36;97751.87;591729;238;68371;-72
2022/12/30 07:15:58;;;;;;;;;;;;;;;25.45;49.99;97752.66;592134;237;42648;-73
2022/12/30 07:18:25;;;;;;;;;;;;;;;25.44;49.66;97754.56;592021;238;68892;-72
2022/12/30 07:20:53;;;;;;;;;;;;;;;25.45;49.40;97752.66;592247;237;68568;-70
2022/12/30 07:23:20;;;;;;;;;;;;;;;25.46;49.55;97747.02;592071;238;62782;-72
2022/12/30 07:25:48;;;;;;;;;;;;;;;25.46;49.41;97752.39;592194;238;66476;-75
2022/12/30 07:28:16;;;;;;;;;;;;;;;25.46;49.70;97747.02;592279;238;68602;-74
2022/12/30 07:30:44;;;;;;;;;;;;;;;25.47;49.79;97753.19;592511;238;64895;-75
2022/12/30 07:33:12;;;;;;;;;;;;;;;25.47;49.56;97748.61;593421;236;68682;-74
2022/12/30 07:35:39;;;;;;;;;;;;;;;25.49;49.79;97742.16;596096;236;68561;-75
2022/12/30 07:38:07;;;;;;;;;;;;;;;25.50;50.23;97751.83;593853;236;65187;-75
2022/12/30 07:40:36;;;;;;;;;;;;;;;25.50;50.35;97749.94;590785;237;48460;-75
2022/12/30 07:43:04;;;;;;;;;;;;;;;25.51;49.92;97751.56;591962;238;69437;-73
2022/12/30 07:45:33;;;;;;;;;;;;;;;25.55;49.05;97754.48;592019;238;64878;-72
2022/12/30 07:48:01;;;;;;;;;;;;;;;25.55;50.55;97749.09;592115;238;66964;-72
2022/12/30 07:50:28;;;;;;;;;;;;;;;25.57;49.23;97746.93;593856;238;66442;-71
2022/12/30 07:52:56;;;;;;;;;;;;;;;25.58;49.97;97743.14;593615;239;62803;-73
2022/12/30 07:55:23;;;;;;;;;;;;;;;25.62;43.88;97744.20;593883;238;68763;-77
2022/12/30 07:57:51;;;;;;;;;;;;;;;25.62;45.48;97744.20;598377;236;68359;-70
2022/12/30 08:00:19;;;;;;;;;;;;;;;25.64;49.99;97742.00;600075;236;62833;-73
2022/12/30 08:02:46;;;;;;;;;;;;;;;25.65;49.64;97746.31;600037;236;68656;-75
2022/12/30 08:05:13;;;;;;;;;;;;;;;25.65;50.33;97743.63;599997;236;68882;-75
2022/12/30 08:07:42;;;;;;;;;;;;;;;25.66;50.59;97739.83;600064;236;64926;-71
2022/12/30 08:10:09;;;;;;;;;;;;;;;25.67;51.13;97736.87;599904;236;66216;-73
2022/12/30 08:12:37;;;;;;;;;;;;;;;25.69;49.94;97729.30;599998;236;68571;-74
2022/12/30 08:15:06;;;;;;;;;;;;;;;25.69;50.50;97729.30;599925;236;64902;-73
2022/12/30 08:17:33;;;;;;;;;;;;;;;25.71;49.65;97722.84;600027;236;66684;-76
2022/12/30 08:20:01;;;;;;;;;;;;;;;25.72;51.03;97722.54;600172;236;68558;-77
2022/12/30 08:22:28;;;;;;;;;;;;;;;25.72;50.07;97730.61;600027;236;64904;-70
2022/12/30 08:24:56;;;;;;;;;;;;;;;25.73;51.66;97718.78;599876;236;66084;-73
2022/12/30 08:27:23;;;;;;;;;;;;;;;25.74;51.54;97720.38;599952;236;66408;-73
2022/12/30 08:29:50;;;;;;;;;;;;;;;25.75;50.94;97721.97;599950;236;62708;-72
2022/12/30 08:32:18;;;;;;;;;;;;;;;25.77;50.70;97722.48;600098;236;66761;-75
2022/12/30 08:34:45;;;;;;;;;;;;;;;25.77;49.29;97714.41;600100;236;66480;-76
2022/12/30 08:37:13;;;;;;;;;;;;;;;25.78;50.01;97724.11;600066;236;62869;-75
2022/12/30 08:39:40;;;;;;;;;;;;;;;25.79;49.92;97727.61;600069;236;66379;-72
2022/12/30 08:42:08;;;;;;;;;;;;;;;25.79;50.12;97725.70;600154;236;66510;-75
2022/12/30 08:44:35;;;;;;;;;;;;;;;25.80;50.44;97724.61;600066;236;62842;-74
2022/12/30 08:47:03;;;;;;;;;;;;;;;25.83;49.66;97734.01;600105;236;66564;-69
2022/12/30 08:49:30;;;;;;;;;;;;;;;25.84;50.59;97725.69;599930;236;66569;-73
2022/12/30 08:51:58;;;;;;;;;;;;;;;25.84;48.84;97724.89;599984;236;62871;-74
2022/12/30 08:54:25;;;;;;;;;;;;;;;25.84;50.09;97720.30;599957;235;66468;-73
2022/12/30 08:56:53;;;;;;;;;;;;;;;25.86;50.18;97731.60;600076;236;66433;-71
2022/12/30 08:59:20;;;;;;;;;;;;;;;25.87;50.11;97732.39;599960;236;64867;-71
2022/12/30 09:01:48;;;;;;;;;;;;;;;25.87;46.41;97735.89;600060;236;68766;-74
2022/12/30 09:04:17;;;;;;;;;;;;;;;25.88;49.46;97724.02;599955;236;68608;-75
2022/12/30 09:06:45;;;;;;;;;;;;;;;25.87;49.45;97725.11;599978;235;65939;-78
2022/12/30 09:09:13;;;;;;;;;;;;;;;25.88;48.77;97720.53;600020;236;68629;-75
2022/12/30 09:11:41;;;;;;;;;;;;;;;25.90;49.59;97723.74;599861;236;66224;-71
2022/12/30 09:14:10;;;;;;;;;;;;;;;25.89;49.26;97722.12;599799;235;64756;-66
2022/12/30 09:16:37;;;;;;;;;;;;;;;25.87;47.48;97719.73;599957;235;68690;-71
2022/12/30 09:19:05;;;;;;;;;;;;;;;25.83;49.38;97715.98;599835;236;69866;-67
2022/12/30 09:21:32;;;;;;;;;;;;;;;25.83;50.08;97712.47;599703;235;64929;-66
2022/12/30 09:24:00;;;;;;;;;;;;;;;25.81;49.72;97707.39;600125;235;68704;-72
2022/12/30 09:26:28;;;;;;;;;;;;;;;25.82;48.68;97705.49;599947;235;68441;-69
2022/12/30 09:28:57;;;;;;;;;;;;;;;25.82;49.95;97700.91;600011;236;65027;-67
2022/12/30 09:31:24;;;;;;;;;;;;;;;25.82;49.38;97700.91;599861;235;66533;-67
2022/12/30 09:33:52;;;;;;;;;;;;;;;25.82;49.75;97698.21;600036;236;66835;-67
2022/12/30 09:36:19;;;;;;;;;;;;;;;25.84;49.20;97688.00;600055;235;62933;-67
2022/12/30 09:38:48;;;;;;;;;;;;;;;25.85;49.79;97689.59;600022;236;65827;-66
2022/12/30 09:44:22;;;;;;;;;;;;;;;25.85;49.28;97684.20;600031;236;65182;-68
2022/12/30 09:46:57;;;;;;;;;;;;;;;25.85;49.97;97681.51;599822;236;68905;-66
2022/12/30 09:49:35;;;;;;;;;;;;;;;25.85;50.19;97667.25;599717;236;66472;-70
2022/12/30 09:52:06;;;;;;;;;;;;;;;25.83;50.24;97664.83;600024;235;63115;-68
2022/12/30 09:54:35;;;;;;;;;;;;;;;25.85;49.79;97651.89;599821;235;68716;-71
2022/12/30 09:59:51;;;;;;;;;;;;;;;25.88;46.09;97651.31;599913;236;65192;-66
2022/12/30 10:02:20;;;;;;;;;;;;;;;25.88;49.93;97651.31;599377;236;66712;-68
2022/12/30 10:04:48;;;;;;;;;;;;;;;25.87;50.58;97647.03;599221;235;66834;-68
2022/12/30 10:07:17;;;;;;;;;;;;;;;25.86;49.25;97648.13;599634;235;65057;-68
2022/12/30 10:09:49;;;;;;;;;;;;;;;25.85;50.37;97635.73;599675;236;69944;-68
2022/12/30 10:12:30;;;;;;;;;;;;;;;25.87;50.33;97643.54;599829;235;68389;-70
2022/12/30 10:15:15;;;;;;;;;;;;;;;25.87;50.91;97641.64;599751;235;62853;-67
2022/12/30 10:18:01;;;;;;;;;;;;;;;25.84;51.43;97650.30;599880;235;68643;-68
2022/12/30 10:20:47;;;;;;;;;;;;;;;25.83;50.29;97637.91;599955;235;50800;-70
2022/12/30 10:23:19;;;;;;;;;;;;;;;25.82;51.43;97635.48;599935;236;65161;-68
2022/12/30 10:26:03;;;;;;;;;;;;;;;25.82;50.81;97633.59;599943;236;68711;-69
2022/12/30 10:28:33;;;;;;;;;;;;;;;25.81;50.32;97633.87;599854;236;68550;-68
2022/12/30 10:31:02;;;;;;;;;;;;;;;25.80;50.71;97627.69;599614;235;65282;-67
2022/12/30 10:33:31;;;;;;;;;;;;;;;25.80;49.86;97630.37;600024;236;68842;-67
2022/12/30 10:36:01;;;;;;;;;;;;;;;25.80;50.09;97621.50;600013;236;68966;-70
2022/12/30 10:38:30;;;;;;;;;;;;;;;25.80;50.48;97624.20;588504;236;62778;-70
2022/12/30 10:40:59;;;;;;;;;;;;;;;25.81;50.94;97626.61;599949;236;68728;-67
2022/12/30 10:43:31;;;;;;;;;;;;;;;25.80;50.48;97622.30;600195;235;69781;-72
2022/12/30 10:46:03;;;;;;;;;;;;;;;25.80;50.72;97616.91;599856;236;64897;-68
2022/12/30 10:48:35;;;;;;;;;;;;;;;25.80;50.79;97613.42;600073;236;68713;-68
2022/12/30 10:51:03;;;;;;;;;;;;;;;25.79;50.50;97615.33;599894;236;68383;-68
2022/12/30 10:53:31;;;;;;;;;;;;;;;25.79;50.20;97607.25;600206;236;62758;-68
2022/12/30 10:56:03;;;;;;;;;;;;;;;25.79;50.86;97603.76;599345;236;68207;-68
2022/12/30 10:58:39;;;;;;;;;;;;;;;25.77;50.17;97604.03;592970;236;69597;-68
2022/12/30 11:01:07;;;;;;;;;;;;;;;25.78;50.10;97594.89;590796;240;64866;-68
2022/12/30 11:03:36;;;;;;;;;;;;;;;25.78;50.59;97602.14;591071;239;68604;-68
2022/12/30 11:06:18;;;;;;;;;;;;;;;25.78;49.19;97596.75;591001;240;66339;-68
2022/12/30 11:08:45;;;;;;;;;;;;;;;25.78;49.87;97597.58;591010;240;62782;-70
2022/12/30 11:11:13;;;;;;;;;;;;;;;25.79;49.69;97587.61;595629;237;66147;-70
2022/12/30 11:16:26;;;;;;;;;;;;;;;25.78;50.50;97585.98;597465;237;62824;-70
2022/12/30 11:18:55;;;;;;;;;;;;;;;25.78;50.69;97584.12;597600;237;69596;-68
2022/12/30 11:21:30;;;;;;;;;;;;;;;25.78;50.88;97578.73;597405;237;68886;-68
2022/12/30 11:24:02;;;;;;;;;;;;;;;25.78;50.49;97581.42;597381;237;64907;-68
2022/12/30 11:26:31;;;;;;;;;;;;;;;25.77;51.32;97579.80;597323;237;68663;-69
2022/12/30 11:29:00;;;;;;;;;;;;;;;25.79;50.31;97576.84;597535;237;68601;-68
2022/12/30 11:31:32;;;;;;;;;;;;;;;25.79;50.63;97579.53;597071;237;64941;-68
2022/12/30 11:34:01;;;;;;;;;;;;;;;25.78;51.50;97569.83;597200;237;68567;-68
2022/12/30 11:36:31;;;;;;;;;;;;;;;25.79;50.73;97580.33;597508;237;68590;-69
2022/12/30 11:39:00;;;;;;;;;;;;;;;25.79;49.95;97574.94;597546;237;62820;-69
2022/12/30 11:41:28;;;;;;;;;;;;;;;25.79;50.50;97568.76;596605;236;66430;-68
2022/12/30 11:44:01;;;;;;;;;;;;;;;25.80;50.21;97565.77;597561;237;66331;-68
2022/12/30 11:46:39;;;;;;;;;;;;;;;25.80;50.18;97571.14;597666;236;62939;-69
2022/12/30 11:49:08;;;;;;;;;;;;;;;25.81;51.16;97572.77;598073;236;68825;-68
2022/12/30 11:51:37;;;;;;;;;;;;;;;25.82;49.97;97570.88;597927;237;67016;-68
2022/12/30 11:54:09;;;;;;;;;;;;;;;25.82;51.82;97568.18;598124;237;63843;-68
2022/12/30 11:56:38;;;;;;;;;;;;;;;25.82;50.40;97563.59;598275;237;68756;-70
2022/12/30 11:59:09;;;;;;;;;;;;;;;25.83;51.39;97567.91;597589;237;47343;-71
2022/12/30 12:01:44;;;;;;;;;;;;;;;25.84;49.69;97563.34;597976;237;62962;-70
2022/12/30 12:04:32;;;;;;;;;;;;;;;25.87;47.79;97563.55;598097;237;69646;-72
2022/12/30 12:06:59;;;;;;;;;;;;;;;25.91;49.17;97559.18;598216;237;68541;-69
2022/12/30 12:09:31;;;;;;;;;;;;;;;25.93;47.96;97550.83;598238;237;64864;-72
2022/12/30 12:12:00;;;;;;;;;;;;;;;25.95;48.35;97550.55;598216;237;69376;-71
2022/12/30 12:14:30;;;;;;;;;;;;;;;25.96;48.32;97549.45;598110;237;48629;-72
2022/12/30 12:17:06;;;;;;;;;;;;;;;25.95;45.93;97548.65;598217;237;64947;-71
2022/12/30 12:19:44;;;;;;;;;;;;;;;25.98;49.74;97548.06;598149;237;69032;-72
2022/12/30 12:22:19;;;;;;;;;;;;;;;25.99;49.54;97546.17;598198;237;68885;-71
2022/12/30 12:24:48;;;;;;;;;;;;;;;26.01;48.57;97546.69;598212;237;63035;-71
2022/12/30 12:27:17;;;;;;;;;;;;;;;26.02;49.58;97540.98;598153;237;68863;-70
2022/12/30 12:29:46;;;;;;;;;;;;;;;26.02;49.08;97549.07;598088;237;68915;-71
2022/12/30 12:32:30;;;;;;;;;;;;;;;26.03;47.39;97544.51;598246;237;62942;-71
2022/12/30 12:35:18;;;;;;;;;;;;;;;26.04;49.46;97552.28;598000;237;66711;-70
2022/12/30 12:37:48;;;;;;;;;;;;;;;26.04;49.86;97544.20;598082;237;68537;-70
2022/12/30 12:40:32;;;;;;;;;;;;;;;26.05;49.79;97545.80;598183;237;64023;-68
2022/12/30 12:43:04;;;;;;;;;;;;;;;26.05;51.17;97551.18;598184;237;66709;-66
2022/12/30 12:45:37;;;;;;;;;;;;;;;26.06;50.14;97558.19;598066;235;68671;-69
2022/12/30 12:48:06;;;;;;;;;;;;;;;26.09;44.11;97556.80;597478;237;65213;-63
2022/12/30 12:50:35;;;;;;;;;;;;;;;26.16;43.49;97557.22;594948;238;68845;-67
2022/12/30 12:53:20;;;;;;;;;;;;;;;26.19;46.06;97553.97;594950;238;68804;-73
2022/12/30 12:55:51;;;;;;;;;;;;;;;26.20;48.72;97555.56;594859;237;63083;-70
2022/12/30 12:58:20;;;;;;;;;;;;;;;26.17;50.53;97558.84;594962;238;66677;-69
2022/12/30 13:00:49;;;;;;;;;;;;;;;26.16;50.89;97565.30;594929;238;66205;-69
2022/12/30 13:03:28;;;;;;;;;;;;;;;26.16;50.61;97559.91;594921;238;65009;-71
2022/12/30 13:05:59;;;;;;;;;;;;;;;26.18;49.63;97565.03;594913;238;68657;-71
2022/12/30 13:08:29;;;;;;;;;;;;;;;26.19;49.62;97570.13;594878;238;67000;-70
2022/12/30 13:11:14;;;;;;;;;;;;;;;26.21;49.55;97567.13;594953;238;63061;-70
2022/12/30 13:14:00;;;;;;;;;;;;;;;26.22;50.50;97572.24;594993;238;68829;-70
2022/12/30 13:16:29;;;;;;;;;;;;;;;26.23;49.38;97581.12;594938;238;68678;-69
2022/12/30 13:18:57;;;;;;;;;;;;;;;26.23;48.97;97581.91;595029;238;65187;-68
2022/12/30 13:21:26;;;;;;;;;;;;;;;26.25;49.90;97585.13;594971;238;68778;-69
2022/12/30 13:23:55;;;;;;;;;;;;;;;26.27;51.43;97592.91;594975;238;66555;-69
2022/12/30 13:26:23;;;;;;;;;;;;;;;26.28;49.98;97589.13;594988;238;67523;-69
2022/12/30 13:28:52;;;;;;;;;;;;;;;26.28;50.58;97595.31;594972;238;65936;-69
2022/12/30 13:31:38;;;;;;;;;;;;;;;26.29;50.52;97594.21;594843;238;66683;-65
2022/12/30 13:34:23;;;;;;;;;;;;;;;26.30;50.05;97595.01;595036;238;63886;-66
2022/12/30 13:36:58;;;;;;;;;;;;;;;26.33;44.29;97597.14;595013;238;69298;-70
2022/12/30 13:39:36;;;;;;;;;;;;;;;26.32;47.80;97606.30;593490;237;66644;-67
2022/12/30 13:42:22;;;;;;;;;;;;;;;26.29;48.18;97596.91;594047;237;65428;-68
2022/12/30 13:44:49;;;;;;;;;;;;;;;26.26;48.06;97597.49;594959;238;68401;-69
2022/12/30 13:47:24;;;;;;;;;;;;;;;26.25;48.04;97595.11;594945;238;66590;-68
2022/12/30 13:49:52;;;;;;;;;;;;;;;26.25;47.87;97597.80;593886;238;62744;-69
2022/12/30 13:52:21;;;;;;;;;;;;;;;26.24;48.37;97598.88;593949;236;66611;-70
2022/12/30 13:54:52;;;;;;;;;;;;;;;26.23;48.24;97603.47;593762;239;66642;-68
2022/12/30 13:57:39;;;;;;;;;;;;;;;26.23;48.79;97603.47;593998;236;65081;-68
2022/12/30 14:00:08;;;;;;;;;;;;;;;26.23;48.31;97608.86;593755;236;66728;-73